sensor_id;sensor_type;location;lat;lon;timestamp;P1;durP1;ratioP1;P2;durP2;ratioP2
70929;SDS011;58588;48.102;19.682;2023-07-31T00:01:13;29.55;;;4.20;;
70929;SDS011;58588;48.102;19.682;2023-07-31T00:04:15;10.93;;;2.95;;
70929;SDS011;58588;48.102;19.682;2023-07-31T00:07:17;13.33;;;2.70;;
70929;SDS011;58588;48.102;19.682;2023-07-31T00:10:19;12.47;;;2.90;;
70929;SDS011;58588;48.102;19.682;2023-07-31T00:13:23;31.73;;;2.95;;
70929;SDS011;58588;48.102;19.682;2023-07-31T00:16:25;35.30;;;2.97;;
70929;SDS011;58588;48.102;19.682;2023-07-31T00:19:28;18.58;;;2.38;;
70929;SDS011;58588;48.102;19.682;2023-07-31T00:22:30;24.90;;;2.60;;
70929;SDS011;58588;48.102;19.682;2023-07-31T00:25:32;14.23;;;2.40;;
70929;SDS011;58588;48.102;19.682;2023-07-31T00:28:35;17.17;;;2.42;;
70929;SDS011;58588;48.102;19.682;2023-07-31T00:31:37;6.93;;;2.10;;
70929;SDS011;58588;48.102;19.682;2023-07-31T00:34:39;11.35;;;2.50;;
70929;SDS011;58588;48.102;19.682;2023-07-31T00:37:41;13.07;;;2.20;;
70929;SDS011;58588;48.102;19.682;2023-07-31T00:40:43;7.57;;;2.00;;
70929;SDS011;58588;48.102;19.682;2023-07-31T00:43:47;12.85;;;2.42;;
70929;SDS011;58588;48.102;19.682;2023-07-31T00:46:49;11.55;;;2.50;;
70929;SDS011;58588;48.102;19.682;2023-07-31T00:49:51;12.77;;;2.30;;
70929;SDS011;58588;48.102;19.682;2023-07-31T00:52:53;6.93;;;2.53;;
70929;SDS011;58588;48.102;19.682;2023-07-31T00:55:56;8.30;;;2.50;;
70929;SDS011;58588;48.102;19.682;2023-07-31T00:59:00;9.75;;;2.28;;
70929;SDS011;58588;48.102;19.682;2023-07-31T01:02:03;6.97;;;2.85;;
70929;SDS011;58588;48.102;19.682;2023-07-31T01:05:05;6.78;;;2.53;;
70929;SDS011;58588;48.102;19.682;2023-07-31T01:08:08;9.30;;;2.60;;
70929;SDS011;58588;48.102;19.682;2023-07-31T01:11:27;12.30;;;2.70;;
70929;SDS011;58588;48.102;19.682;2023-07-31T01:14:31;21.15;;;3.20;;
70929;SDS011;58588;48.102;19.682;2023-07-31T01:17:33;20.95;;;2.35;;
70929;SDS011;58588;48.102;19.682;2023-07-31T01:20:35;7.63;;;2.40;;
70929;SDS011;58588;48.102;19.682;2023-07-31T01:23:51;15.60;;;2.30;;
70929;SDS011;58588;48.102;19.682;2023-07-31T01:27:04;10.93;;;2.50;;
70929;SDS011;58588;48.102;19.682;2023-07-31T01:30:11;16.17;;;2.30;;
70929;SDS011;58588;48.102;19.682;2023-07-31T01:33:18;13.20;;;2.58;;
70929;SDS011;58588;48.102;19.682;2023-07-31T01:36:20;5.53;;;2.30;;
70929;SDS011;58588;48.102;19.682;2023-07-31T01:39:23;9.07;;;2.37;;
70929;SDS011;58588;48.102;19.682;2023-07-31T01:42:26;10.33;;;2.53;;
70929;SDS011;58588;48.102;19.682;2023-07-31T01:45:28;10.05;;;2.20;;
70929;SDS011;58588;48.102;19.682;2023-07-31T01:48:30;18.35;;;2.50;;
70929;SDS011;58588;48.102;19.682;2023-07-31T01:51:35;15.05;;;2.30;;
70929;SDS011;58588;48.102;19.682;2023-07-31T01:54:38;8.37;;;2.13;;
70929;SDS011;58588;48.102;19.682;2023-07-31T01:57:41;8.37;;;2.13;;
70929;SDS011;58588;48.102;19.682;2023-07-31T02:00:43;14.40;;;2.15;;
70929;SDS011;58588;48.102;19.682;2023-07-31T02:03:46;9.43;;;2.17;;
70929;SDS011;58588;48.102;19.682;2023-07-31T02:06:48;13.35;;;2.30;;
70929;SDS011;58588;48.102;19.682;2023-07-31T02:09:50;7.90;;;2.20;;
70929;SDS011;58588;48.102;19.682;2023-07-31T02:12:54;11.67;;;2.27;;
70929;SDS011;58588;48.102;19.682;2023-07-31T02:15:56;8.60;;;2.60;;
70929;SDS011;58588;48.102;19.682;2023-07-31T02:18:58;7.80;;;2.15;;
70929;SDS011;58588;48.102;19.682;2023-07-31T02:22:00;13.43;;;2.35;;
70929;SDS011;58588;48.102;19.682;2023-07-31T02:25:02;9.87;;;2.10;;
70929;SDS011;58588;48.102;19.682;2023-07-31T02:28:05;10.20;;;2.30;;
70929;SDS011;58588;48.102;19.682;2023-07-31T02:31:07;12.85;;;2.35;;
70929;SDS011;58588;48.102;19.682;2023-07-31T02:34:09;11.30;;;2.35;;
70929;SDS011;58588;48.102;19.682;2023-07-31T02:37:11;7.65;;;2.60;;
70929;SDS011;58588;48.102;19.682;2023-07-31T02:40:13;10.53;;;2.37;;
70929;SDS011;58588;48.102;19.682;2023-07-31T02:43:17;12.50;;;2.70;;
70929;SDS011;58588;48.102;19.682;2023-07-31T02:46:19;9.38;;;2.35;;
70929;SDS011;58588;48.102;19.682;2023-07-31T02:49:24;8.60;;;2.20;;
70929;SDS011;58588;48.102;19.682;2023-07-31T02:52:26;7.35;;;2.30;;
70929;SDS011;58588;48.102;19.682;2023-07-31T02:55:28;5.93;;;2.40;;
70929;SDS011;58588;48.102;19.682;2023-07-31T02:58:32;11.57;;;2.30;;
70929;SDS011;58588;48.102;19.682;2023-07-31T03:01:34;7.78;;;2.13;;
70929;SDS011;58588;48.102;19.682;2023-07-31T03:04:36;8.98;;;2.50;;
70929;SDS011;58588;48.102;19.682;2023-07-31T03:07:38;10.27;;;2.10;;
70929;SDS011;58588;48.102;19.682;2023-07-31T03:10:40;7.67;;;2.00;;
70929;SDS011;58588;48.102;19.682;2023-07-31T03:13:43;5.00;;;1.87;;
70929;SDS011;58588;48.102;19.682;2023-07-31T03:16:45;6.28;;;1.95;;
70929;SDS011;58588;48.102;19.682;2023-07-31T03:19:47;8.27;;;1.98;;
70929;SDS011;58588;48.102;19.682;2023-07-31T03:22:49;5.20;;;2.00;;
70929;SDS011;58588;48.102;19.682;2023-07-31T03:25:57;5.50;;;2.00;;
70929;SDS011;58588;48.102;19.682;2023-07-31T03:29:01;5.23;;;1.93;;
70929;SDS011;58588;48.102;19.682;2023-07-31T03:32:03;6.68;;;2.00;;
70929;SDS011;58588;48.102;19.682;2023-07-31T03:35:06;5.07;;;1.90;;
70929;SDS011;58588;48.102;19.682;2023-07-31T03:38:08;4.65;;;1.80;;
70929;SDS011;58588;48.102;19.682;2023-07-31T03:41:10;4.90;;;1.70;;
70929;SDS011;58588;48.102;19.682;2023-07-31T03:44:14;5.43;;;1.80;;
70929;SDS011;58588;48.102;19.682;2023-07-31T03:47:16;4.75;;;1.73;;
70929;SDS011;58588;48.102;19.682;2023-07-31T03:50:18;4.72;;;1.80;;
70929;SDS011;58588;48.102;19.682;2023-07-31T03:53:20;4.90;;;1.92;;
70929;SDS011;58588;48.102;19.682;2023-07-31T03:56:22;5.40;;;2.00;;
70929;SDS011;58588;48.102;19.682;2023-07-31T03:59:25;5.60;;;1.93;;
70929;SDS011;58588;48.102;19.682;2023-07-31T04:02:27;7.20;;;1.90;;
70929;SDS011;58588;48.102;19.682;2023-07-31T04:05:30;6.35;;;2.10;;
70929;SDS011;58588;48.102;19.682;2023-07-31T04:08:33;4.60;;;1.90;;
70929;SDS011;58588;48.102;19.682;2023-07-31T04:11:35;4.80;;;1.80;;
70929;SDS011;58588;48.102;19.682;2023-07-31T04:14:41;4.97;;;1.60;;
70929;SDS011;58588;48.102;19.682;2023-07-31T04:17:43;6.75;;;1.70;;
70929;SDS011;58588;48.102;19.682;2023-07-31T04:20:45;7.13;;;2.10;;
70929;SDS011;58588;48.102;19.682;2023-07-31T04:23:47;5.22;;;2.10;;
70929;SDS011;58588;48.102;19.682;2023-07-31T04:26:49;5.90;;;2.47;;
70929;SDS011;58588;48.102;19.682;2023-07-31T04:29:52;6.63;;;1.83;;
70929;SDS011;58588;48.102;19.682;2023-07-31T04:32:55;7.05;;;2.20;;
70929;SDS011;58588;48.102;19.682;2023-07-31T04:35:57;5.13;;;2.00;;
70929;SDS011;58588;48.102;19.682;2023-07-31T04:39:00;7.22;;;2.10;;
70929;SDS011;58588;48.102;19.682;2023-07-31T04:42:02;5.40;;;2.03;;
70929;SDS011;58588;48.102;19.682;2023-07-31T04:45:07;9.13;;;2.30;;
70929;SDS011;58588;48.102;19.682;2023-07-31T04:48:10;7.75;;;2.40;;
70929;SDS011;58588;48.102;19.682;2023-07-31T04:51:12;8.77;;;2.10;;
70929;SDS011;58588;48.102;19.682;2023-07-31T04:54:14;6.88;;;2.30;;
70929;SDS011;58588;48.102;19.682;2023-07-31T04:57:16;10.10;;;2.53;;
70929;SDS011;58588;48.102;19.682;2023-07-31T05:00:19;8.13;;;2.30;;
70929;SDS011;58588;48.102;19.682;2023-07-31T05:03:21;8.20;;;2.40;;
70929;SDS011;58588;48.102;19.682;2023-07-31T05:06:23;7.93;;;2.50;;
70929;SDS011;58588;48.102;19.682;2023-07-31T05:09:25;6.65;;;2.72;;
70929;SDS011;58588;48.102;19.682;2023-07-31T05:12:28;7.65;;;2.42;;
70929;SDS011;58588;48.102;19.682;2023-07-31T05:15:31;6.77;;;2.50;;
70929;SDS011;58588;48.102;19.682;2023-07-31T05:18:33;8.95;;;2.70;;
70929;SDS011;58588;48.102;19.682;2023-07-31T05:21:35;6.80;;;2.50;;
70929;SDS011;58588;48.102;19.682;2023-07-31T05:24:37;5.88;;;2.55;;
70929;SDS011;58588;48.102;19.682;2023-07-31T05:27:39;5.73;;;2.40;;
70929;SDS011;58588;48.102;19.682;2023-07-31T05:30:42;7.60;;;2.43;;
70929;SDS011;58588;48.102;19.682;2023-07-31T05:33:44;5.53;;;2.40;;
70929;SDS011;58588;48.102;19.682;2023-07-31T05:36:46;6.05;;;2.60;;
70929;SDS011;58588;48.102;19.682;2023-07-31T05:39:48;6.32;;;2.38;;
70929;SDS011;58588;48.102;19.682;2023-07-31T05:42:50;6.55;;;2.10;;
70929;SDS011;58588;48.102;19.682;2023-07-31T05:45:54;6.07;;;2.10;;
70929;SDS011;58588;48.102;19.682;2023-07-31T05:48:56;5.50;;;2.20;;
70929;SDS011;58588;48.102;19.682;2023-07-31T05:52:00;7.90;;;2.50;;
70929;SDS011;58588;48.102;19.682;2023-07-31T05:55:02;7.00;;;2.30;;
70929;SDS011;58588;48.102;19.682;2023-07-31T05:58:05;5.93;;;1.73;;
70929;SDS011;58588;48.102;19.682;2023-07-31T06:01:08;5.47;;;1.90;;
70929;SDS011;58588;48.102;19.682;2023-07-31T06:04:11;5.15;;;1.88;;
70929;SDS011;58588;48.102;19.682;2023-07-31T06:07:13;5.97;;;2.00;;
70929;SDS011;58588;48.102;19.682;2023-07-31T06:10:15;5.78;;;1.70;;
70929;SDS011;58588;48.102;19.682;2023-07-31T06:13:17;5.78;;;1.65;;
70929;SDS011;58588;48.102;19.682;2023-07-31T06:16:20;5.80;;;2.00;;
70929;SDS011;58588;48.102;19.682;2023-07-31T06:19:22;5.50;;;1.70;;
70929;SDS011;58588;48.102;19.682;2023-07-31T06:22:25;6.22;;;1.60;;
70929;SDS011;58588;48.102;19.682;2023-07-31T06:25:27;5.30;;;1.83;;
70929;SDS011;58588;48.102;19.682;2023-07-31T06:28:29;5.60;;;1.80;;
70929;SDS011;58588;48.102;19.682;2023-07-31T06:31:32;4.43;;;1.57;;
70929;SDS011;58588;48.102;19.682;2023-07-31T06:34:34;7.57;;;1.90;;
70929;SDS011;58588;48.102;19.682;2023-07-31T06:37:36;5.60;;;1.63;;
70929;SDS011;58588;48.102;19.682;2023-07-31T06:40:40;6.85;;;1.80;;
70929;SDS011;58588;48.102;19.682;2023-07-31T06:43:42;6.15;;;1.60;;
70929;SDS011;58588;48.102;19.682;2023-07-31T06:46:45;4.97;;;1.60;;
70929;SDS011;58588;48.102;19.682;2023-07-31T06:49:47;6.13;;;1.40;;
70929;SDS011;58588;48.102;19.682;2023-07-31T06:52:49;5.15;;;1.30;;
70929;SDS011;58588;48.102;19.682;2023-07-31T06:55:51;5.10;;;1.50;;
70929;SDS011;58588;48.102;19.682;2023-07-31T06:58:55;4.97;;;1.30;;
70929;SDS011;58588;48.102;19.682;2023-07-31T07:01:58;4.30;;;1.20;;
70929;SDS011;58588;48.102;19.682;2023-07-31T07:05:00;5.63;;;1.50;;
70929;SDS011;58588;48.102;19.682;2023-07-31T07:08:03;4.47;;;1.25;;
70929;SDS011;58588;48.102;19.682;2023-07-31T07:11:05;6.15;;;1.40;;
70929;SDS011;58588;48.102;19.682;2023-07-31T07:14:07;4.80;;;1.50;;
70929;SDS011;58588;48.102;19.682;2023-07-31T07:17:10;5.63;;;1.50;;
70929;SDS011;58588;48.102;19.682;2023-07-31T07:20:12;5.88;;;1.58;;
70929;SDS011;58588;48.102;19.682;2023-07-31T07:23:14;4.10;;;1.20;;
70929;SDS011;58588;48.102;19.682;2023-07-31T07:26:16;5.47;;;1.27;;
70929;SDS011;58588;48.102;19.682;2023-07-31T07:29:18;5.10;;;1.30;;
70929;SDS011;58588;48.102;19.682;2023-07-31T07:32:22;6.33;;;1.43;;
70929;SDS011;58588;48.102;19.682;2023-07-31T07:35:24;4.50;;;1.30;;
70929;SDS011;58588;48.102;19.682;2023-07-31T07:38:26;4.82;;;1.30;;
70929;SDS011;58588;48.102;19.682;2023-07-31T07:41:28;7.05;;;1.30;;
70929;SDS011;58588;48.102;19.682;2023-07-31T07:44:30;5.20;;;1.70;;
70929;SDS011;58588;48.102;19.682;2023-07-31T07:47:34;6.37;;;1.40;;
70929;SDS011;58588;48.102;19.682;2023-07-31T07:53:39;4.25;;;1.30;;
70929;SDS011;58588;48.102;19.682;2023-07-31T07:56:41;5.05;;;1.40;;
70929;SDS011;58588;48.102;19.682;2023-07-31T07:59:44;4.78;;;1.55;;
70929;SDS011;58588;48.102;19.682;2023-07-31T08:02:47;7.60;;;1.50;;
70929;SDS011;58588;48.102;19.682;2023-07-31T08:05:49;5.00;;;1.40;;
70929;SDS011;58588;48.102;19.682;2023-07-31T08:08:51;4.07;;;1.13;;
70929;SDS011;58588;48.102;19.682;2023-07-31T08:11:53;4.78;;;1.42;;
70929;SDS011;58588;48.102;19.682;2023-07-31T08:14:58;5.65;;;1.50;;
70929;SDS011;58588;48.102;19.682;2023-07-31T08:18:02;5.97;;;1.40;;
70929;SDS011;58588;48.102;19.682;2023-07-31T08:21:04;5.47;;;1.40;;
70929;SDS011;58588;48.102;19.682;2023-07-31T08:24:06;5.75;;;1.48;;
70929;SDS011;58588;48.102;19.682;2023-07-31T08:27:08;4.18;;;1.23;;
70929;SDS011;58588;48.102;19.682;2023-07-31T08:30:12;7.97;;;1.30;;
70929;SDS011;58588;48.102;19.682;2023-07-31T08:33:15;6.00;;;1.30;;
70929;SDS011;58588;48.102;19.682;2023-07-31T08:36:17;4.28;;;1.20;;
70929;SDS011;58588;48.102;19.682;2023-07-31T08:39:20;3.97;;;1.08;;
70929;SDS011;58588;48.102;19.682;2023-07-31T08:42:22;3.78;;;1.10;;
70929;SDS011;58588;48.102;19.682;2023-07-31T08:45:25;4.43;;;1.38;;
70929;SDS011;58588;48.102;19.682;2023-07-31T08:48:29;4.30;;;1.20;;
70929;SDS011;58588;48.102;19.682;2023-07-31T08:51:33;5.07;;;1.55;;
70929;SDS011;58588;48.102;19.682;2023-07-31T08:54:35;4.25;;;1.00;;
70929;SDS011;58588;48.102;19.682;2023-07-31T08:57:37;6.00;;;1.00;;
70929;SDS011;58588;48.102;19.682;2023-07-31T09:00:40;4.00;;;1.02;;
70929;SDS011;58588;48.102;19.682;2023-07-31T09:03:46;5.17;;;1.10;;
70929;SDS011;58588;48.102;19.682;2023-07-31T09:06:51;4.78;;;1.10;;
70929;SDS011;58588;48.102;19.682;2023-07-31T09:09:58;3.90;;;1.02;;
70929;SDS011;58588;48.102;19.682;2023-07-31T09:13:00;6.43;;;1.20;;
70929;SDS011;58588;48.102;19.682;2023-07-31T09:16:04;5.47;;;1.50;;
70929;SDS011;58588;48.102;19.682;2023-07-31T09:19:07;8.30;;;1.20;;
70929;SDS011;58588;48.102;19.682;2023-07-31T09:22:09;5.25;;;1.15;;
70929;SDS011;58588;48.102;19.682;2023-07-31T09:25:15;5.18;;;1.00;;
70929;SDS011;58588;48.102;19.682;2023-07-31T09:28:17;4.38;;;1.10;;
70929;SDS011;58588;48.102;19.682;2023-07-31T09:31:21;5.38;;;1.20;;
70929;SDS011;58588;48.102;19.682;2023-07-31T09:34:37;4.20;;;1.10;;
70929;SDS011;58588;48.102;19.682;2023-07-31T09:37:40;6.88;;;1.25;;
70929;SDS011;58588;48.102;19.682;2023-07-31T09:40:42;5.78;;;1.30;;
70929;SDS011;58588;48.102;19.682;2023-07-31T09:43:52;4.25;;;1.17;;
70929;SDS011;58588;48.102;19.682;2023-07-31T09:46:55;4.07;;;1.10;;
70929;SDS011;58588;48.102;19.682;2023-07-31T09:49:58;4.17;;;1.10;;
70929;SDS011;58588;48.102;19.682;2023-07-31T09:53:00;4.55;;;1.20;;
70929;SDS011;58588;48.102;19.682;2023-07-31T09:56:02;7.60;;;1.10;;
70929;SDS011;58588;48.102;19.682;2023-07-31T09:59:06;5.82;;;1.30;;
70929;SDS011;58588;48.102;19.682;2023-07-31T10:02:13;4.80;;;0.93;;
70929;SDS011;58588;48.102;19.682;2023-07-31T10:05:23;5.37;;;0.93;;
70929;SDS011;58588;48.102;19.682;2023-07-31T10:08:30;4.90;;;1.00;;
70929;SDS011;58588;48.102;19.682;2023-07-31T10:11:37;4.47;;;1.10;;
70929;SDS011;58588;48.102;19.682;2023-07-31T10:14:44;4.18;;;1.10;;
70929;SDS011;58588;48.102;19.682;2023-07-31T10:17:47;4.78;;;1.23;;
70929;SDS011;58588;48.102;19.682;2023-07-31T10:20:51;5.80;;;1.00;;
70929;SDS011;58588;48.102;19.682;2023-07-31T10:23:54;3.55;;;1.10;;
70929;SDS011;58588;48.102;19.682;2023-07-31T10:26:57;5.28;;;1.10;;
70929;SDS011;58588;48.102;19.682;2023-07-31T10:30:01;5.18;;;1.00;;
70929;SDS011;58588;48.102;19.682;2023-07-31T10:33:07;3.50;;;0.98;;
70929;SDS011;58588;48.102;19.682;2023-07-31T10:36:13;4.60;;;1.10;;
70929;SDS011;58588;48.102;19.682;2023-07-31T10:39:35;4.55;;;1.08;;
70929;SDS011;58588;48.102;19.682;2023-07-31T10:42:44;4.15;;;1.10;;
70929;SDS011;58588;48.102;19.682;2023-07-31T10:45:49;4.90;;;1.10;;
70929;SDS011;58588;48.102;19.682;2023-07-31T10:48:57;4.07;;;1.20;;
70929;SDS011;58588;48.102;19.682;2023-07-31T10:52:01;5.80;;;1.03;;
70929;SDS011;58588;48.102;19.682;2023-07-31T10:55:16;5.88;;;1.17;;
70929;SDS011;58588;48.102;19.682;2023-07-31T10:58:25;5.05;;;1.20;;
70929;SDS011;58588;48.102;19.682;2023-07-31T11:01:37;3.88;;;1.05;;
70929;SDS011;58588;48.102;19.682;2023-07-31T11:05:05;4.72;;;1.08;;
70929;SDS011;58588;48.102;19.682;2023-07-31T11:08:13;3.70;;;0.87;;
70929;SDS011;58588;48.102;19.682;2023-07-31T11:11:17;4.32;;;1.10;;
70929;SDS011;58588;48.102;19.682;2023-07-31T11:14:20;4.30;;;1.35;;
70929;SDS011;58588;48.102;19.682;2023-07-31T11:17:24;4.38;;;1.00;;
70929;SDS011;58588;48.102;19.682;2023-07-31T11:20:28;4.53;;;1.23;;
70929;SDS011;58588;48.102;19.682;2023-07-31T11:23:33;4.67;;;1.13;;
70929;SDS011;58588;48.102;19.682;2023-07-31T11:26:35;7.10;;;1.40;;
70929;SDS011;58588;48.102;19.682;2023-07-31T11:29:37;6.03;;;1.20;;
70929;SDS011;58588;48.102;19.682;2023-07-31T11:32:39;5.50;;;1.20;;
70929;SDS011;58588;48.102;19.682;2023-07-31T11:35:42;3.83;;;1.02;;
70929;SDS011;58588;48.102;19.682;2023-07-31T11:38:47;6.40;;;1.10;;
70929;SDS011;58588;48.102;19.682;2023-07-31T11:41:49;4.70;;;1.10;;
70929;SDS011;58588;48.102;19.682;2023-07-31T11:44:51;5.85;;;1.00;;
70929;SDS011;58588;48.102;19.682;2023-07-31T11:47:54;4.18;;;1.10;;
70929;SDS011;58588;48.102;19.682;2023-07-31T11:50:57;4.65;;;1.10;;
70929;SDS011;58588;48.102;19.682;2023-07-31T11:54:02;5.90;;;1.00;;
70929;SDS011;58588;48.102;19.682;2023-07-31T11:57:05;5.07;;;1.20;;
70929;SDS011;58588;48.102;19.682;2023-07-31T12:00:09;6.43;;;0.95;;
70929;SDS011;58588;48.102;19.682;2023-07-31T12:03:13;3.65;;;1.00;;
70929;SDS011;58588;48.102;19.682;2023-07-31T12:06:16;5.07;;;1.10;;
70929;SDS011;58588;48.102;19.682;2023-07-31T12:09:19;4.70;;;1.07;;
70929;SDS011;58588;48.102;19.682;2023-07-31T12:12:22;3.97;;;1.08;;
70929;SDS011;58588;48.102;19.682;2023-07-31T12:15:28;3.50;;;1.00;;
70929;SDS011;58588;48.102;19.682;2023-07-31T12:18:34;7.43;;;1.13;;
70929;SDS011;58588;48.102;19.682;2023-07-31T12:21:38;4.35;;;0.98;;
70929;SDS011;58588;48.102;19.682;2023-07-31T12:24:42;5.50;;;0.97;;
70929;SDS011;58588;48.102;19.682;2023-07-31T12:27:45;3.67;;;1.05;;
70929;SDS011;58588;48.102;19.682;2023-07-31T12:30:47;3.45;;;0.85;;
70929;SDS011;58588;48.102;19.682;2023-07-31T12:33:50;5.35;;;1.35;;
70929;SDS011;58588;48.102;19.682;2023-07-31T12:36:53;3.53;;;1.00;;
70929;SDS011;58588;48.102;19.682;2023-07-31T12:39:57;4.50;;;1.10;;
70929;SDS011;58588;48.102;19.682;2023-07-31T12:43:03;5.40;;;1.00;;
70929;SDS011;58588;48.102;19.682;2023-07-31T12:46:05;5.13;;;1.10;;
70929;SDS011;58588;48.102;19.682;2023-07-31T12:49:09;3.22;;;0.93;;
70929;SDS011;58588;48.102;19.682;2023-07-31T12:52:11;7.30;;;1.40;;
70929;SDS011;58588;48.102;19.682;2023-07-31T12:55:14;4.10;;;1.13;;
70929;SDS011;58588;48.102;19.682;2023-07-31T12:58:16;5.28;;;1.27;;
70929;SDS011;58588;48.102;19.682;2023-07-31T13:01:18;4.13;;;1.00;;
70929;SDS011;58588;48.102;19.682;2023-07-31T13:04:20;4.00;;;1.00;;
70929;SDS011;58588;48.102;19.682;2023-07-31T13:07:23;3.78;;;1.05;;
70929;SDS011;58588;48.102;19.682;2023-07-31T13:10:27;4.23;;;1.13;;
70929;SDS011;58588;48.102;19.682;2023-07-31T13:13:30;4.35;;;1.10;;
70929;SDS011;58588;48.102;19.682;2023-07-31T13:16:32;4.75;;;1.10;;
70929;SDS011;58588;48.102;19.682;2023-07-31T13:19:35;4.82;;;1.15;;
70929;SDS011;58588;48.102;19.682;2023-07-31T13:22:37;4.82;;;1.05;;
70929;SDS011;58588;48.102;19.682;2023-07-31T13:25:41;5.53;;;1.27;;
70929;SDS011;58588;48.102;19.682;2023-07-31T13:28:43;7.88;;;1.08;;
70929;SDS011;58588;48.102;19.682;2023-07-31T13:31:45;3.30;;;0.90;;
70929;SDS011;58588;48.102;19.682;2023-07-31T13:34:47;4.38;;;1.10;;
70929;SDS011;58588;48.102;19.682;2023-07-31T13:37:50;4.70;;;0.95;;
70929;SDS011;58588;48.102;19.682;2023-07-31T13:40:53;5.57;;;1.03;;
70929;SDS011;58588;48.102;19.682;2023-07-31T13:43:56;4.30;;;1.00;;
70929;SDS011;58588;48.102;19.682;2023-07-31T13:46:59;3.95;;;1.30;;
70929;SDS011;58588;48.102;19.682;2023-07-31T13:50:01;3.92;;;1.05;;
70929;SDS011;58588;48.102;19.682;2023-07-31T13:53:03;4.10;;;1.13;;
70929;SDS011;58588;48.102;19.682;2023-07-31T13:56:07;5.70;;;1.20;;
70929;SDS011;58588;48.102;19.682;2023-07-31T13:59:09;4.97;;;1.13;;
70929;SDS011;58588;48.102;19.682;2023-07-31T14:02:11;5.95;;;1.30;;
70929;SDS011;58588;48.102;19.682;2023-07-31T14:05:13;3.75;;;1.17;;
70929;SDS011;58588;48.102;19.682;2023-07-31T14:08:16;4.70;;;1.30;;
70929;SDS011;58588;48.102;19.682;2023-07-31T14:11:19;5.60;;;1.33;;
70929;SDS011;58588;48.102;19.682;2023-07-31T14:14:21;5.63;;;1.45;;
70929;SDS011;58588;48.102;19.682;2023-07-31T14:17:23;4.10;;;1.00;;
70929;SDS011;58588;48.102;19.682;2023-07-31T14:20:25;4.50;;;1.33;;
70929;SDS011;58588;48.102;19.682;2023-07-31T14:23:27;5.20;;;1.10;;
70929;SDS011;58588;48.102;19.682;2023-07-31T14:26:31;3.77;;;1.00;;
70929;SDS011;58588;48.102;19.682;2023-07-31T14:29:33;4.63;;;1.30;;
70929;SDS011;58588;48.102;19.682;2023-07-31T14:32:35;5.20;;;1.25;;
70929;SDS011;58588;48.102;19.682;2023-07-31T14:35:37;4.65;;;1.33;;
70929;SDS011;58588;48.102;19.682;2023-07-31T14:38:39;4.13;;;1.20;;
70929;SDS011;58588;48.102;19.682;2023-07-31T14:41:42;4.67;;;1.10;;
70929;SDS011;58588;48.102;19.682;2023-07-31T14:44:44;5.78;;;1.10;;
70929;SDS011;58588;48.102;19.682;2023-07-31T14:47:47;4.20;;;1.15;;
70929;SDS011;58588;48.102;19.682;2023-07-31T14:50:49;4.38;;;1.20;;
70929;SDS011;58588;48.102;19.682;2023-07-31T14:53:51;5.22;;;1.20;;
70929;SDS011;58588;48.102;19.682;2023-07-31T14:56:54;5.60;;;1.30;;
70929;SDS011;58588;48.102;19.682;2023-07-31T14:59:56;4.35;;;1.20;;
70929;SDS011;58588;48.102;19.682;2023-07-31T15:02:58;5.47;;;1.10;;
70929;SDS011;58588;48.102;19.682;2023-07-31T15:06:03;5.30;;;1.25;;
70929;SDS011;58588;48.102;19.682;2023-07-31T15:09:07;3.95;;;1.10;;
70929;SDS011;58588;48.102;19.682;2023-07-31T15:12:11;4.00;;;1.10;;
70929;SDS011;58588;48.102;19.682;2023-07-31T15:15:13;4.65;;;1.00;;
70929;SDS011;58588;48.102;19.682;2023-07-31T15:18:16;3.88;;;1.10;;
70929;SDS011;58588;48.102;19.682;2023-07-31T15:21:18;6.78;;;1.92;;
70929;SDS011;58588;48.102;19.682;2023-07-31T15:24:20;6.50;;;1.80;;
70929;SDS011;58588;48.102;19.682;2023-07-31T15:27:23;5.87;;;1.30;;
70929;SDS011;58588;48.102;19.682;2023-07-31T15:30:26;4.53;;;1.10;;
70929;SDS011;58588;48.102;19.682;2023-07-31T15:33:28;5.18;;;1.23;;
70929;SDS011;58588;48.102;19.682;2023-07-31T15:36:30;6.22;;;1.25;;
70929;SDS011;58588;48.102;19.682;2023-07-31T15:39:32;4.40;;;1.40;;
70929;SDS011;58588;48.102;19.682;2023-07-31T15:42:36;5.60;;;1.37;;
70929;SDS011;58588;48.102;19.682;2023-07-31T15:45:40;4.88;;;1.38;;
70929;SDS011;58588;48.102;19.682;2023-07-31T15:48:42;5.75;;;1.85;;
70929;SDS011;58588;48.102;19.682;2023-07-31T15:51:44;9.85;;;1.75;;
70929;SDS011;58588;48.102;19.682;2023-07-31T15:54:46;4.70;;;1.23;;
70929;SDS011;58588;48.102;19.682;2023-07-31T15:57:50;4.27;;;1.30;;
70929;SDS011;58588;48.102;19.682;2023-07-31T16:00:52;4.43;;;1.05;;
70929;SDS011;58588;48.102;19.682;2023-07-31T16:03:54;4.60;;;1.10;;
70929;SDS011;58588;48.102;19.682;2023-07-31T16:06:56;4.53;;;1.20;;
70929;SDS011;58588;48.102;19.682;2023-07-31T16:09:58;7.68;;;1.20;;
70929;SDS011;58588;48.102;19.682;2023-07-31T16:13:02;4.93;;;1.00;;
70929;SDS011;58588;48.102;19.682;2023-07-31T16:16:04;5.97;;;1.60;;
70929;SDS011;58588;48.102;19.682;2023-07-31T16:19:06;4.88;;;1.20;;
70929;SDS011;58588;48.102;19.682;2023-07-31T16:22:08;5.57;;;1.63;;
70929;SDS011;58588;48.102;19.682;2023-07-31T16:25:10;6.75;;;1.75;;
70929;SDS011;58588;48.102;19.682;2023-07-31T16:28:14;5.40;;;1.50;;
70929;SDS011;58588;48.102;19.682;2023-07-31T16:31:16;4.40;;;1.10;;
70929;SDS011;58588;48.102;19.682;2023-07-31T16:34:18;4.80;;;1.23;;
70929;SDS011;58588;48.102;19.682;2023-07-31T16:37:20;3.97;;;1.20;;
70929;SDS011;58588;48.102;19.682;2023-07-31T16:40:23;6.25;;;1.35;;
70929;SDS011;58588;48.102;19.682;2023-07-31T16:43:26;4.13;;;1.13;;
70929;SDS011;58588;48.102;19.682;2023-07-31T16:46:29;4.93;;;1.30;;
70929;SDS011;58588;48.102;19.682;2023-07-31T16:49:31;4.88;;;1.30;;
70929;SDS011;58588;48.102;19.682;2023-07-31T16:52:33;5.85;;;1.33;;
70929;SDS011;58588;48.102;19.682;2023-07-31T16:55:35;5.93;;;1.30;;
70929;SDS011;58588;48.102;19.682;2023-07-31T16:58:39;5.23;;;1.20;;
70929;SDS011;58588;48.102;19.682;2023-07-31T17:01:41;5.70;;;1.38;;
70929;SDS011;58588;48.102;19.682;2023-07-31T17:04:43;4.07;;;1.00;;
70929;SDS011;58588;48.102;19.682;2023-07-31T17:07:45;4.85;;;1.10;;
70929;SDS011;58588;48.102;19.682;2023-07-31T17:10:47;5.18;;;1.27;;
70929;SDS011;58588;48.102;19.682;2023-07-31T17:13:50;4.83;;;1.07;;
70929;SDS011;58588;48.102;19.682;2023-07-31T17:16:52;5.00;;;1.10;;
70929;SDS011;58588;48.102;19.682;2023-07-31T17:19:54;5.65;;;1.08;;
70929;SDS011;58588;48.102;19.682;2023-07-31T17:22:56;4.55;;;1.10;;
70929;SDS011;58588;48.102;19.682;2023-07-31T17:25:59;5.35;;;1.40;;
70929;SDS011;58588;48.102;19.682;2023-07-31T17:29:02;5.33;;;1.30;;
70929;SDS011;58588;48.102;19.682;2023-07-31T17:32:04;6.72;;;1.30;;
70929;SDS011;58588;48.102;19.682;2023-07-31T17:35:07;4.38;;;1.00;;
70929;SDS011;58588;48.102;19.682;2023-07-31T17:38:09;5.78;;;1.10;;
70929;SDS011;58588;48.102;19.682;2023-07-31T17:41:11;4.97;;;1.13;;
70929;SDS011;58588;48.102;19.682;2023-07-31T17:44:15;5.03;;;1.30;;
70929;SDS011;58588;48.102;19.682;2023-07-31T17:47:17;5.50;;;1.50;;
70929;SDS011;58588;48.102;19.682;2023-07-31T17:50:20;7.40;;;1.38;;
70929;SDS011;58588;48.102;19.682;2023-07-31T17:53:22;4.60;;;1.20;;
70929;SDS011;58588;48.102;19.682;2023-07-31T17:56:24;4.68;;;1.25;;
70929;SDS011;58588;48.102;19.682;2023-07-31T17:59:27;4.40;;;1.30;;
70929;SDS011;58588;48.102;19.682;2023-07-31T18:02:30;5.95;;;1.50;;
70929;SDS011;58588;48.102;19.682;2023-07-31T18:05:32;5.55;;;1.40;;
70929;SDS011;58588;48.102;19.682;2023-07-31T18:08:34;5.32;;;1.20;;